createdAt,value
2023-02-09T00:01:37.739Z,33.22
2023-02-09T00:06:38.529Z,46.20
2023-02-09T00:11:57.467Z,34.95
2023-02-09T00:17:00.941Z,34.65
2023-02-09T00:22:02.010Z,33.50
2023-02-09T00:27:03.422Z,40.33
2023-02-09T00:32:05.576Z,35.25
2023-02-09T00:37:06.725Z,32.53
2023-02-09T00:42:10.379Z,31.12
2023-02-09T00:47:11.169Z,28.30
2023-02-09T00:52:11.918Z,33.22
2023-02-09T00:57:12.804Z,32.08
2023-02-09T01:02:13.611Z,34.63
2023-02-09T01:07:14.402Z,31.62
2023-02-09T01:12:15.204Z,35.80
2023-02-09T01:17:15.993Z,29.20
2023-02-09T01:22:16.741Z,34.70
2023-02-09T01:27:23.305Z,31.27
2023-02-09T01:32:24.218Z,33.25
2023-02-09T01:37:27.975Z,37.60
2023-02-09T01:42:32.256Z,31.60
2023-02-09T01:47:41.386Z,33.13
2023-02-09T01:52:43.126Z,28.80
2023-02-09T01:57:53.411Z,29.90
2023-02-09T02:03:01.610Z,30.23
2023-02-09T02:08:13.965Z,29.15
2023-02-09T02:13:14.763Z,32.80
2023-02-09T02:18:49.764Z,33.85
2023-02-09T02:27:05.264Z,28.52
2023-02-09T02:32:13.637Z,30.17
2023-02-09T02:37:47.612Z,29.98
2023-02-09T02:43:06.947Z,57.60
2023-02-09T02:49:43.708Z,36.90
2023-02-09T02:54:52.257Z,41.50
2023-02-09T03:00:00.046Z,31.67
2023-02-09T03:05:03.048Z,33.55
2023-02-09T03:10:24.226Z,34.47
2023-02-09T03:17:40.431Z,50.47
2023-02-09T03:22:45.444Z,49.00
2023-02-09T03:28:26.539Z,56.80
2023-02-09T03:33:31.336Z,32.28
2023-02-09T03:38:32.147Z,33.42
2023-02-09T03:43:54.106Z,35.78
2023-02-09T03:48:56.393Z,31.42
2023-02-09T03:53:58.061Z,32.13
2023-02-09T03:58:59.551Z,33.13
2023-02-09T04:04:04.496Z,33.20
2023-02-09T04:09:05.998Z,35.22
2023-02-09T04:14:12.272Z,35.00
2023-02-09T04:19:13.307Z,31.95
2023-02-09T04:24:14.046Z,31.60
2023-02-09T04:29:14.865Z,29.80
2023-02-09T04:34:15.778Z,31.65
2023-02-09T04:39:26.390Z,25.80
2023-02-09T04:44:27.164Z,33.83
2023-02-09T04:49:28.158Z,32.03
2023-02-09T04:54:28.902Z,29.02
2023-02-09T04:59:36.396Z,32.88
2023-02-09T05:04:37.176Z,30.77
2023-02-09T05:09:41.028Z,35.85
2023-02-09T05:14:41.788Z,30.75
2023-02-09T05:19:45.875Z,30.52
2023-02-09T05:24:46.603Z,31.42
2023-02-09T05:29:49.122Z,31.20
2023-02-09T05:34:49.941Z,31.80
2023-02-09T05:39:50.787Z,34.05
2023-02-09T05:44:51.627Z,34.95
2023-02-09T05:49:52.345Z,30.40
2023-02-09T05:54:53.172Z,32.00
2023-02-09T05:59:53.883Z,28.62
2023-02-09T06:04:57.572Z,31.83
2023-02-09T06:09:58.391Z,33.45
2023-02-09T06:15:10.196Z,41.47
2023-02-09T06:20:14.094Z,32.85
2023-02-09T06:25:17.816Z,32.55
2023-02-09T06:30:19.375Z,30.65
2023-02-09T06:35:20.852Z,34.45
2023-02-09T06:40:24.858Z,32.35
2023-02-09T06:45:26.125Z,36.45
2023-02-09T06:50:27.157Z,32.55
2023-02-09T06:55:28.586Z,35.28
2023-02-09T07:00:31.357Z,37.35
2023-02-09T07:05:32.288Z,38.58
2023-02-09T07:10:33.232Z,37.00
2023-02-09T07:15:37.104Z,35.22
2023-02-09T07:20:41.896Z,33.03
2023-02-09T07:25:49.952Z,35.97
2023-02-09T07:30:52.406Z,31.20
2023-02-09T07:35:53.383Z,35.85
2023-02-09T07:40:54.744Z,37.80
2023-02-09T07:46:07.668Z,49.88
2023-02-09T07:51:26.972Z,39.10
2023-02-09T07:56:28.470Z,42.20
2023-02-09T08:01:29.718Z,40.65
2023-02-09T08:06:43.012Z,38.28
2023-02-09T08:12:04.290Z,44.97
2023-02-09T08:17:23.351Z,60.12
2023-02-09T08:22:29.311Z,59.80
2023-02-09T08:27:33.583Z,56.97
2023-02-09T08:32:37.944Z,56.40
2023-02-09T08:37:39.023Z,47.20
2023-02-09T08:42:43.868Z,41.15
2023-02-09T08:47:45.388Z,40.17
2023-02-09T08:52:52.332Z,51.92
2023-02-09T08:57:55.994Z,47.33
2023-02-09T09:02:56.862Z,39.38
2023-02-09T09:08:03.269Z,41.85
2023-02-09T09:13:04.341Z,44.53
2023-02-09T09:18:11.311Z,41.37
2023-02-09T09:23:15.587Z,43.75
2023-02-09T09:28:16.688Z,50.60
2023-02-09T09:33:19.117Z,41.85
2023-02-09T09:38:22.204Z,38.97
2023-02-09T09:43:33.847Z,38.17
2023-02-09T09:48:47.140Z,42.75
2023-02-09T09:58:53.943Z,39.00
2023-02-09T10:04:12.536Z,37.45
2023-02-09T10:09:32.671Z,43.87
2023-02-09T10:14:33.617Z,40.10
2023-02-09T10:19:40.716Z,38.13
2023-02-09T10:24:41.468Z,34.65
2023-02-09T10:29:44.934Z,42.53
2023-02-09T10:34:51.675Z,42.30
2023-02-09T10:39:59.506Z,45.72
2023-02-09T10:45:20.577Z,41.60
2023-02-09T10:50:21.755Z,42.20
2023-02-09T10:55:27.917Z,51.25
2023-02-09T11:00:36.331Z,42.58
2023-02-09T11:05:39.107Z,40.88
2023-02-09T11:10:46.585Z,37.03
2023-02-09T11:16:24.812Z,40.97
2023-02-09T11:21:39.941Z,42.55
2023-02-09T11:26:57.452Z,49.13
2023-02-09T11:32:26.204Z,42.80
2023-02-09T11:38:18.096Z,37.97
2023-02-09T11:43:40.086Z,41.65
2023-02-09T11:48:47.981Z,44.55
2023-02-09T11:54:06.626Z,45.00
2023-02-09T11:59:32.157Z,39.47
2023-02-09T12:04:49.305Z,42.53
2023-02-09T12:10:16.019Z,42.05
2023-02-09T12:15:20.197Z,40.55
2023-02-09T12:23:52.707Z,44.05
2023-02-09T12:29:40.660Z,47.22
2023-02-09T12:34:49.853Z,41.10
2023-02-09T12:43:26.647Z,36.50
2023-02-09T12:48:27.396Z,39.10
2023-02-09T12:53:40.003Z,30.92
2023-02-09T12:59:26.524Z,43.50
2023-02-09T13:04:31.580Z,38.45
2023-02-09T13:09:37.685Z,28.87
2023-02-09T13:14:38.583Z,27.58
2023-02-09T13:21:26.859Z,37.20
2023-02-09T13:26:31.687Z,40.78
2023-02-09T13:31:42.013Z,39.10
2023-02-09T13:37:17.868Z,43.30
2023-02-09T13:42:22.093Z,41.20
2023-02-09T13:47:23.730Z,42.62
2023-02-09T13:52:25.990Z,39.03
2023-02-09T13:57:37.595Z,49.07
2023-02-09T14:02:38.884Z,37.40
2023-02-09T14:07:40.178Z,42.80
2023-02-09T14:12:58.866Z,37.83
2023-02-09T14:17:59.602Z,40.05
2023-02-09T14:23:01.436Z,35.40
2023-02-09T14:28:02.655Z,39.80
2023-02-09T14:33:03.615Z,42.25
2023-02-09T14:38:04.399Z,36.88
2023-02-09T14:43:38.222Z,36.63
2023-02-09T14:48:39.433Z,35.47
2023-02-09T14:53:42.950Z,45.88
2023-02-09T14:58:43.761Z,40.10
2023-02-09T15:03:44.558Z,37.75
2023-02-09T15:08:45.361Z,41.72
2023-02-09T15:13:46.978Z,40.55
2023-02-09T15:18:47.694Z,38.90
2023-02-09T15:23:48.504Z,38.97
2023-02-09T15:28:49.380Z,37.55
2023-02-09T15:33:50.150Z,41.70
2023-02-09T15:38:50.869Z,39.55
2023-02-09T15:44:10.087Z,45.53
2023-02-09T15:49:11.033Z,56.83
2023-02-09T15:54:17.136Z,45.35
2023-02-09T15:59:20.936Z,44.22
2023-02-09T16:04:21.697Z,48.03
2023-02-09T16:09:26.943Z,41.72
2023-02-09T16:14:27.818Z,45.97
2023-02-09T16:19:28.860Z,52.33
2023-02-09T16:24:38.629Z,39.05
2023-02-09T16:29:39.524Z,44.00
2023-02-09T16:34:40.319Z,39.17
2023-02-09T16:39:41.551Z,48.30
2023-02-09T16:44:42.452Z,41.08
2023-02-09T16:49:54.213Z,44.20
2023-02-09T16:55:00.115Z,45.60
2023-02-09T17:00:01.757Z,51.58
2023-02-09T17:05:17.852Z,43.08
2023-02-09T17:10:20.952Z,44.30
2023-02-09T17:15:30.494Z,44.45
2023-02-09T17:20:40.225Z,61.37
2023-02-09T17:25:41.002Z,39.08
2023-02-09T17:30:42.377Z,42.65
2023-02-09T17:36:17.603Z,37.78
2023-02-09T17:41:36.363Z,51.35
2023-02-09T17:46:37.167Z,44.78
2023-02-09T17:51:40.654Z,55.42
2023-02-09T17:56:41.983Z,84.65
2023-02-09T18:01:45.856Z,64.53
2023-02-09T18:06:51.112Z,54.17
2023-02-09T18:12:03.605Z,60.10
2023-02-09T18:17:04.454Z,50.35
2023-02-09T18:22:05.966Z,41.28
2023-02-09T18:27:07.988Z,47.72
2023-02-09T18:32:12.106Z,45.70
2023-02-09T18:37:14.540Z,41.88
2023-02-09T18:42:15.595Z,49.30
2023-02-09T18:47:16.427Z,47.75
2023-02-09T18:52:17.955Z,49.28
2023-02-09T18:57:18.814Z,42.70
2023-02-09T19:02:20.088Z,55.75
2023-02-09T19:07:21.612Z,54.17
2023-02-09T19:12:22.545Z,58.92
2023-02-09T19:17:23.563Z,54.55
2023-02-09T19:22:25.144Z,45.67
2023-02-09T19:27:27.000Z,45.33
2023-02-09T19:32:28.188Z,48.13
2023-02-09T19:37:29.131Z,62.60
2023-02-09T19:42:32.848Z,49.45
2023-02-09T19:47:33.642Z,39.17
2023-02-09T19:52:36.527Z,33.33
2023-02-09T19:57:37.340Z,38.10
2023-02-09T20:02:39.111Z,29.02
2023-02-09T20:07:40.120Z,38.67
2023-02-09T20:12:40.973Z,41.88
2023-02-09T20:17:43.477Z,37.83
2023-02-09T20:22:44.258Z,34.93
2023-02-09T20:27:49.196Z,35.95
2023-02-09T20:32:50.141Z,33.63
2023-02-09T20:37:52.249Z,30.65
2023-02-09T20:43:11.421Z,31.27
2023-02-09T20:48:13.025Z,34.88
2023-02-09T20:53:14.038Z,38.92
2023-02-09T20:58:14.833Z,34.85
2023-02-09T21:03:15.689Z,39.80
2023-02-09T21:08:16.444Z,35.45
2023-02-09T21:13:17.202Z,35.15
2023-02-09T21:18:18.129Z,40.72
2023-02-09T21:23:19.642Z,41.05
2023-02-09T21:28:20.443Z,45.53
2023-02-09T21:33:21.337Z,39.47
2023-02-09T21:38:22.098Z,40.70
2023-02-09T21:43:23.030Z,44.08
2023-02-09T21:48:23.754Z,49.67
2023-02-09T21:53:24.590Z,37.92
2023-02-09T21:58:25.323Z,37.10
2023-02-09T22:03:26.192Z,34.28
2023-02-09T22:08:28.196Z,61.22
2023-02-09T22:13:29.814Z,134.55
2023-02-09T22:18:30.554Z,116.18
2023-02-09T22:23:31.327Z,65.03
2023-02-09T22:28:35.855Z,54.95
2023-02-09T22:33:37.783Z,47.88
2023-02-09T22:38:38.780Z,65.78
2023-02-09T22:43:39.580Z,55.28
2023-02-09T22:48:40.313Z,40.70
2023-02-09T22:53:41.145Z,48.30
2023-02-09T22:58:42.207Z,83.45
2023-02-09T23:03:43.156Z,48.60
2023-02-09T23:08:44.831Z,43.97
2023-02-09T23:13:45.670Z,43.47
2023-02-09T23:18:51.632Z,38.70
2023-02-09T23:23:53.132Z,38.38
2023-02-09T23:28:58.553Z,41.50
2023-02-09T23:33:59.570Z,35.95
2023-02-09T23:39:04.462Z,57.47
2023-02-09T23:44:05.226Z,38.65
2023-02-09T23:49:06.269Z,40.80
2023-02-09T23:54:07.413Z,45.90
2023-02-09T23:59:11.951Z,45.40
